LFBL/LIG METAR and TAF weather

Enter ICAO airport designator
Station Type Date Time Source
LFBL METAR 2020/08/11 01:00 UTC NOAA

LFBL 110100Z AUTO 14003KT 110V170 CAVOK 23/16 Q1015 TEMPO TSRA BECMG FEW070CB BKN140


Station Type Date Time Source
LFBL Decoded METAR 2020/08/11 01:00 UTC NOAA

Limoges, France (LFBL) 45-52N 001-11E 402M
Aug 10, 2020 - 09:00 PM EDT / 2020.08.11 0100 UTC
Wind: from the SE (140 degrees) at 3 MPH (3 KT) (direction variable):0
Visibility: greater than 7 mile(s):0
Weather: Cumulonimbus clouds observed
Temperature: 73 F (23 C)
Dew Point: 60 F (16 C)
Relative Humidity: 64%
Pressure (altimeter): 29.97 in. Hg (1015 hPa)
ob: LFBL 110100Z AUTO 14003KT 110V170 CAVOK 23/16 Q1015 TEMPO TSRA BECMG FEW070CB BKN140
cycle: 1

Station Type Date Time Source
LFBL TAF 2020/08/10 20:03 UTC NOAA

TAF
AMD TAF
AMD LFBL 102000Z 1020/1118 12006KT CAVOK
TEMPO 1020/1106 FEW070CB PROB40
TEMPO 1020/1022 TSRA
BECMG 1112/1114 SCT070TCU
TEMPO 1114/1118 VRB16G28KT SHRA SCT060CB BKN070

Example: see airport list